createdAt,value
2019-01-08T00:01:59.063Z,15.90
2019-01-08T00:04:27.589Z,17.30
2019-01-08T00:06:55.991Z,17.62
2019-01-08T00:09:24.549Z,16.67
2019-01-08T00:11:53.134Z,16.50
2019-01-08T00:14:21.614Z,17.12
2019-01-08T00:16:50.063Z,16.35
2019-01-08T00:19:18.521Z,17.80
2019-01-08T00:21:46.973Z,18.82
2019-01-08T00:24:15.538Z,16.40
2019-01-08T00:27:03.288Z,15.75
2019-01-08T00:29:31.790Z,17.40
2019-01-08T00:32:00.251Z,16.57
2019-01-08T00:34:28.813Z,15.95
2019-01-08T00:36:57.311Z,13.95
2019-01-08T00:39:25.878Z,17.37
2019-01-08T00:41:54.328Z,15.30
2019-01-08T00:44:22.837Z,13.68
2019-01-08T00:46:51.292Z,16.12
2019-01-08T00:49:19.803Z,12.90
2019-01-08T00:51:48.253Z,13.15
2019-01-08T00:54:16.765Z,13.85
2019-01-08T00:56:45.246Z,13.03
2019-01-08T00:59:13.830Z,14.40
2019-01-08T01:01:42.320Z,12.60
2019-01-08T01:04:10.993Z,12.30
2019-01-08T01:06:39.497Z,13.83
2019-01-08T01:09:09.379Z,15.45
2019-01-08T01:11:37.976Z,13.00
2019-01-08T01:14:06.411Z,12.33
2019-01-08T01:16:34.872Z,12.85
2019-01-08T01:19:03.422Z,12.50
2019-01-08T01:21:31.829Z,14.93
2019-01-08T01:24:00.277Z,13.30
2019-01-08T01:26:28.863Z,10.98
2019-01-08T01:29:00.079Z,11.45
2019-01-08T01:31:27.415Z,10.13
2019-01-08T01:33:55.903Z,11.48
2019-01-08T01:36:24.346Z,9.30
2019-01-08T01:38:52.799Z,10.70
2019-01-08T01:41:21.305Z,11.63
2019-01-08T01:43:49.755Z,10.23
2019-01-08T01:46:18.247Z,10.03
2019-01-08T01:48:46.707Z,8.53
2019-01-08T01:51:15.210Z,9.45
2019-01-08T01:53:43.699Z,8.18
2019-01-08T01:56:14.355Z,8.95
2019-01-08T01:58:45.037Z,7.50
2019-01-08T02:01:14.940Z,9.10
2019-01-08T02:03:43.417Z,8.98
2019-01-08T02:06:11.862Z,7.62
2019-01-08T02:08:40.312Z,7.83
2019-01-08T02:11:08.896Z,7.85
2019-01-08T02:13:38.323Z,7.42
2019-01-08T02:16:06.802Z,7.58
2019-01-08T02:18:35.254Z,7.50
2019-01-08T02:21:03.763Z,7.30
2019-01-08T02:23:32.216Z,6.87
2019-01-08T02:26:00.655Z,7.50
2019-01-08T02:28:29.147Z,5.40
2019-01-08T02:30:57.668Z,6.85
2019-01-08T02:33:26.254Z,5.35
2019-01-08T02:35:54.841Z,4.37
2019-01-08T02:38:23.318Z,4.72
2019-01-08T02:40:51.765Z,5.22
2019-01-08T02:43:20.255Z,3.65
2019-01-08T02:45:48.756Z,3.45
2019-01-08T02:48:17.210Z,3.58
2019-01-08T02:50:45.719Z,3.10
2019-01-08T02:53:33.464Z,3.27
2019-01-08T02:56:01.914Z,3.33
2019-01-08T02:58:30.359Z,3.62
2019-01-08T03:00:58.896Z,2.35
2019-01-08T03:03:27.360Z,2.60
2019-01-08T03:05:55.807Z,2.55
2019-01-08T03:08:24.247Z,2.80
2019-01-08T03:10:52.732Z,2.77
2019-01-08T03:13:21.301Z,2.10
2019-01-08T03:15:49.776Z,2.70
2019-01-08T03:18:18.222Z,2.67
2019-01-08T03:20:46.679Z,2.35
2019-01-08T03:23:15.225Z,2.20
2019-01-08T03:25:43.709Z,2.30
2019-01-08T03:28:12.187Z,2.10
2019-01-08T03:30:40.657Z,3.05
2019-01-08T03:33:09.107Z,4.00
2019-01-08T03:35:37.586Z,2.92
2019-01-08T03:38:06.076Z,3.72
2019-01-08T03:40:34.522Z,2.65
2019-01-08T03:43:02.972Z,2.60
2019-01-08T03:45:31.614Z,3.02
2019-01-08T03:48:00.111Z,2.70
2019-01-08T03:50:28.563Z,2.52
2019-01-08T03:52:57.150Z,3.25
2019-01-08T03:55:25.650Z,2.60
2019-01-08T03:57:54.098Z,3.08
2019-01-08T04:00:22.542Z,2.75
2019-01-08T04:02:51.030Z,2.42
2019-01-08T04:05:19.478Z,3.20
2019-01-08T04:07:47.967Z,3.05
2019-01-08T04:10:16.571Z,2.95
2019-01-08T04:12:45.009Z,2.90
2019-01-08T04:15:13.533Z,2.70
2019-01-08T04:17:42.034Z,2.85
2019-01-08T04:20:10.527Z,2.85
2019-01-08T04:22:38.976Z,4.80
2019-01-08T04:25:07.422Z,2.72
2019-01-08T04:27:35.939Z,2.60
2019-01-08T04:30:04.935Z,3.67
2019-01-08T04:32:33.515Z,2.85
2019-01-08T04:35:02.000Z,2.80
2019-01-08T04:37:30.447Z,2.95
2019-01-08T04:39:58.959Z,2.90
2019-01-08T04:42:27.467Z,2.80
2019-01-08T04:44:55.923Z,3.77
2019-01-08T04:47:24.368Z,3.35
2019-01-08T04:49:52.855Z,3.52
2019-01-08T04:52:21.299Z,2.83
2019-01-08T04:54:49.786Z,3.12
2019-01-08T04:57:18.239Z,6.47
2019-01-08T04:59:46.807Z,3.92
2019-01-08T05:02:15.392Z,3.02
2019-01-08T05:04:43.868Z,3.67
2019-01-08T05:07:12.306Z,3.47
2019-01-08T05:09:40.799Z,3.60
2019-01-08T05:12:28.524Z,3.40
2019-01-08T05:14:57.025Z,3.80
2019-01-08T05:17:25.462Z,3.12
2019-01-08T05:19:53.912Z,4.00
2019-01-08T05:22:22.396Z,2.62
2019-01-08T05:24:50.838Z,3.40
2019-01-08T05:27:19.283Z,3.87
2019-01-08T05:29:47.776Z,3.10
2019-01-08T05:32:16.219Z,3.40
2019-01-08T05:34:44.671Z,3.65
2019-01-08T05:37:13.173Z,3.02
2019-01-08T05:39:41.659Z,3.42
2019-01-08T05:42:10.135Z,4.25
2019-01-08T05:44:38.616Z,4.10
2019-01-08T05:47:07.201Z,3.15
2019-01-08T05:49:35.677Z,3.15
2019-01-08T05:52:04.126Z,4.08
2019-01-08T05:54:32.568Z,2.98
2019-01-08T05:57:01.051Z,3.87
2019-01-08T05:59:29.499Z,3.70
2019-01-08T06:01:57.984Z,2.95
2019-01-08T06:04:26.439Z,2.87
2019-01-08T06:06:54.948Z,2.92
2019-01-08T06:09:23.445Z,6.58
2019-01-08T06:11:51.988Z,11.05
2019-01-08T06:14:20.387Z,13.88
2019-01-08T06:16:48.871Z,17.75
2019-01-08T06:19:17.338Z,16.62
2019-01-08T06:21:45.790Z,19.95
2019-01-08T06:24:14.313Z,19.55
2019-01-08T06:26:42.837Z,20.90
2019-01-08T06:29:11.283Z,20.82
2019-01-08T06:31:39.743Z,21.87
2019-01-08T06:34:08.340Z,22.13
2019-01-08T06:36:36.836Z,24.18
2019-01-08T06:39:06.275Z,19.62
2019-01-08T06:41:34.808Z,21.82
2019-01-08T06:44:03.329Z,19.87
2019-01-08T06:46:31.872Z,20.32
2019-01-08T06:49:00.279Z,23.95
2019-01-08T06:51:28.736Z,16.87
2019-01-08T06:53:57.251Z,21.00
2019-01-08T06:56:25.688Z,12.20
2019-01-08T06:58:54.175Z,8.38
2019-01-08T07:01:22.644Z,7.78
2019-01-08T07:03:51.138Z,8.38
2019-01-08T07:06:19.539Z,8.03
2019-01-08T07:08:48.032Z,6.35
2019-01-08T07:11:16.477Z,7.25
2019-01-08T07:13:44.941Z,4.42
2019-01-08T07:16:13.411Z,4.30
2019-01-08T07:18:41.925Z,4.65
2019-01-08T07:21:11.809Z,3.60
2019-01-08T07:23:40.625Z,3.30
2019-01-08T07:26:09.090Z,2.45
2019-01-08T07:28:37.534Z,3.40
2019-01-08T07:31:06.068Z,2.30
2019-01-08T07:33:35.268Z,2.95
2019-01-08T07:36:03.749Z,1.90
2019-01-08T07:38:32.223Z,2.58
2019-01-08T07:41:00.671Z,2.05
2019-01-08T07:43:29.117Z,2.10
2019-01-08T07:45:57.616Z,1.90
2019-01-08T07:48:26.064Z,2.85
2019-01-08T07:50:54.511Z,2.10
2019-01-08T07:53:23.002Z,2.50
2019-01-08T07:55:51.452Z,4.97
2019-01-08T07:58:19.895Z,3.50
2019-01-08T08:00:50.169Z,3.00
2019-01-08T08:03:18.577Z,3.00
2019-01-08T08:05:47.057Z,2.65
2019-01-08T08:08:15.505Z,2.45
2019-01-08T08:10:44.019Z,3.00
2019-01-08T08:13:12.538Z,2.77
2019-01-08T08:15:40.987Z,6.97
2019-01-08T08:18:09.434Z,5.17
2019-01-08T08:20:37.945Z,4.87
2019-01-08T08:23:06.379Z,6.83
2019-01-08T08:25:34.911Z,7.35
2019-01-08T08:28:03.417Z,5.42
2019-01-08T08:30:31.977Z,7.03
2019-01-08T08:33:01.271Z,7.92
2019-01-08T08:35:29.754Z,9.78
2019-01-08T08:37:58.235Z,8.18
2019-01-08T08:40:26.640Z,7.17
2019-01-08T08:42:55.091Z,11.05
2019-01-08T08:45:23.575Z,5.95
2019-01-08T08:47:52.018Z,8.33
2019-01-08T08:50:20.467Z,8.05
2019-01-08T08:52:49.018Z,10.00
2019-01-08T08:55:17.499Z,7.50
2019-01-08T08:57:45.975Z,8.28
2019-01-08T09:00:14.463Z,8.55
2019-01-08T09:02:42.943Z,8.88
2019-01-08T09:05:11.421Z,6.17
2019-01-08T09:07:39.964Z,1.50
2019-01-08T09:10:08.407Z,1.90
2019-01-08T09:12:36.866Z,1.62
2019-01-08T09:15:06.138Z,0.90
2019-01-08T09:17:34.588Z,0.85
2019-01-08T09:20:03.035Z,0.90
2019-01-08T09:22:31.518Z,0.60
2019-01-08T09:24:59.969Z,0.80
2019-01-08T09:27:28.416Z,0.60
2019-01-08T09:29:56.950Z,0.60
2019-01-08T09:32:25.641Z,0.70
2019-01-08T09:34:54.732Z,0.68
2019-01-08T09:37:23.185Z,0.70
2019-01-08T09:39:51.632Z,1.12
2019-01-08T09:42:20.080Z,0.80
2019-01-08T09:44:48.563Z,0.80
2019-01-08T09:47:17.034Z,1.10
2019-01-08T09:49:45.457Z,1.30
2019-01-08T09:52:13.944Z,0.88
2019-01-08T09:54:42.418Z,0.60
2019-01-08T09:57:10.857Z,0.85
2019-01-08T09:59:39.320Z,0.60
2019-01-08T10:02:07.764Z,6.05
2019-01-08T10:04:36.210Z,0.85
2019-01-08T10:07:04.784Z,0.55
2019-01-08T10:09:33.278Z,1.52
2019-01-08T10:12:01.733Z,0.88
2019-01-08T10:14:30.316Z,0.60
2019-01-08T10:16:58.767Z,0.70
2019-01-08T10:19:27.215Z,1.47
2019-01-08T10:21:55.716Z,0.70
2019-01-08T10:24:24.158Z,0.70
2019-01-08T10:26:52.604Z,1.00
2019-01-08T10:29:21.110Z,1.15
2019-01-08T10:31:49.571Z,0.90
2019-01-08T10:34:18.073Z,0.82
2019-01-08T10:36:46.657Z,1.05
2019-01-08T10:39:15.240Z,0.90
2019-01-08T10:41:43.720Z,0.70
2019-01-08T10:44:31.447Z,0.60
2019-01-08T10:46:59.922Z,0.90
2019-01-08T10:49:28.415Z,0.80
2019-01-08T10:51:56.852Z,0.98
2019-01-08T10:54:25.299Z,1.35
2019-01-08T10:56:53.751Z,1.00
2019-01-08T10:59:22.236Z,0.93
2019-01-08T11:01:50.821Z,1.07
2019-01-08T11:04:19.304Z,1.07
2019-01-08T11:06:47.822Z,0.90
2019-01-08T11:09:16.285Z,1.07
2019-01-08T11:11:44.832Z,0.90
2019-01-08T11:14:13.738Z,0.90
2019-01-08T11:16:42.165Z,1.62
2019-01-08T11:19:10.615Z,1.07
2019-01-08T11:21:39.182Z,1.47
2019-01-08T11:24:07.666Z,1.70
2019-01-08T11:26:36.123Z,0.95
2019-01-08T11:29:04.731Z,1.25
2019-01-08T11:31:33.618Z,1.45
2019-01-08T11:34:02.509Z,2.80
2019-01-08T11:36:30.998Z,1.00
2019-01-08T11:38:59.884Z,1.10
2019-01-08T11:41:28.772Z,0.90
2019-01-08T11:43:57.662Z,1.27
2019-01-08T11:46:26.553Z,0.70
2019-01-08T11:48:55.445Z,0.70
2019-01-08T11:51:24.297Z,1.15
2019-01-08T11:53:53.226Z,0.98
2019-01-08T11:56:22.116Z,24.82
2019-01-08T11:58:51.005Z,1.40
2019-01-08T12:01:19.830Z,1.45
2019-01-08T12:03:48.787Z,1.30
2019-01-08T12:06:17.670Z,1.37
2019-01-08T12:08:46.568Z,1.72
2019-01-08T12:11:15.452Z,1.77
2019-01-08T12:13:44.343Z,1.65
2019-01-08T12:16:13.240Z,3.10
2019-01-08T12:18:42.131Z,1.52
2019-01-08T12:21:11.023Z,1.67
2019-01-08T12:23:39.911Z,1.70
2019-01-08T12:26:08.905Z,1.20
2019-01-08T12:28:37.796Z,1.47
2019-01-08T12:31:06.687Z,1.20
2019-01-08T12:33:35.578Z,1.25
2019-01-08T12:36:04.469Z,1.90
2019-01-08T12:38:33.359Z,1.50
2019-01-08T12:41:02.231Z,2.45
2019-01-08T12:43:31.140Z,1.47
2019-01-08T12:46:00.133Z,1.65
2019-01-08T12:48:28.980Z,1.45
2019-01-08T12:50:57.834Z,1.67
2019-01-08T12:53:26.703Z,1.85
2019-01-08T12:55:55.594Z,2.47
2019-01-08T12:58:24.416Z,1.10
2019-01-08T13:00:53.272Z,2.00
2019-01-08T13:03:22.164Z,2.42
2019-01-08T13:05:51.770Z,3.85
2019-01-08T13:08:20.639Z,1.70
2019-01-08T13:10:49.654Z,1.80
2019-01-08T13:13:19.724Z,1.80
2019-01-08T13:15:48.664Z,2.52
2019-01-08T13:18:17.555Z,1.67
2019-01-08T13:20:46.440Z,3.98
2019-01-08T13:23:15.337Z,1.52
2019-01-08T13:25:44.331Z,2.08
2019-01-08T13:28:13.323Z,2.10
2019-01-08T13:30:42.315Z,2.00
2019-01-08T13:33:11.205Z,2.25
2019-01-08T13:35:40.199Z,3.08
2019-01-08T13:38:09.093Z,1.82
2019-01-08T13:40:38.085Z,1.92
2019-01-08T13:43:06.968Z,1.60
2019-01-08T13:45:35.869Z,2.17
2019-01-08T13:48:04.857Z,2.05
2019-01-08T13:50:33.852Z,4.42
2019-01-08T13:53:02.733Z,1.72
2019-01-08T13:55:31.735Z,1.87
2019-01-08T13:58:00.732Z,1.60
2019-01-08T14:00:31.625Z,1.98
2019-01-08T14:03:00.148Z,4.37
2019-01-08T14:05:28.993Z,2.50
2019-01-08T14:07:57.817Z,2.90
2019-01-08T14:10:26.820Z,3.42
2019-01-08T14:12:55.710Z,2.67
2019-01-08T14:15:25.320Z,2.02
2019-01-08T14:17:54.320Z,2.20
2019-01-08T14:20:23.202Z,7.33
2019-01-08T14:22:52.094Z,1.55
2019-01-08T14:25:21.086Z,2.17
2019-01-08T14:27:49.980Z,2.22
2019-01-08T14:30:18.867Z,2.02
2019-01-08T14:32:47.860Z,2.83
2019-01-08T14:35:16.751Z,1.90
2019-01-08T14:37:45.641Z,2.10
2019-01-08T14:40:14.565Z,2.60
2019-01-08T14:42:43.526Z,2.30
2019-01-08T14:45:12.418Z,2.55
2019-01-08T14:47:41.408Z,3.00
2019-01-08T14:50:10.419Z,2.45
2019-01-08T14:52:39.296Z,14.98
2019-01-08T14:55:08.185Z,5.40
2019-01-08T14:57:37.075Z,5.37
2019-01-08T15:00:07.876Z,1.95
2019-01-08T15:02:36.804Z,2.22
2019-01-08T15:05:05.796Z,2.30
2019-01-08T15:07:34.689Z,1.35
2019-01-08T15:10:03.834Z,2.40
2019-01-08T15:12:33.491Z,2.00
2019-01-08T15:15:02.382Z,8.15
2019-01-08T15:17:31.375Z,1.80
2019-01-08T15:20:00.275Z,2.37
2019-01-08T15:22:29.156Z,2.65
2019-01-08T15:24:58.149Z,2.12
2019-01-08T15:27:27.041Z,2.12
2019-01-08T15:29:56.032Z,1.77
2019-01-08T15:32:24.925Z,1.87
2019-01-08T15:34:53.770Z,2.20
2019-01-08T15:37:22.598Z,1.90
2019-01-08T15:39:51.493Z,1.92
2019-01-08T15:42:20.387Z,2.25
2019-01-08T15:44:49.270Z,1.92
2019-01-08T15:47:18.372Z,1.35
2019-01-08T15:49:47.261Z,1.80
2019-01-08T15:52:16.151Z,1.82
2019-01-08T15:54:45.145Z,1.82
2019-01-08T15:57:14.036Z,1.52
2019-01-08T15:59:42.926Z,3.77
2019-01-08T16:02:11.919Z,1.10
2019-01-08T16:04:40.848Z,1.40
2019-01-08T16:07:09.700Z,1.40
2019-01-08T16:09:38.591Z,1.45
2019-01-08T16:12:07.584Z,1.32
2019-01-08T16:14:36.474Z,1.52
2019-01-08T16:17:05.467Z,1.70
2019-01-08T16:19:34.357Z,1.10
2019-01-08T16:22:03.249Z,1.50
2019-01-08T16:24:32.139Z,1.65
2019-01-08T16:27:01.043Z,1.50
2019-01-08T16:29:30.024Z,1.40
2019-01-08T16:31:58.915Z,0.90
2019-01-08T16:34:27.805Z,1.60
2019-01-08T16:36:56.794Z,1.70
2019-01-08T16:39:25.688Z,1.00
2019-01-08T16:41:54.579Z,1.35
2019-01-08T16:44:23.577Z,1.20
2019-01-08T16:46:52.389Z,1.60
2019-01-08T16:49:21.356Z,1.50
2019-01-08T16:51:50.247Z,1.82
2019-01-08T16:54:19.135Z,1.60
2019-01-08T16:56:48.128Z,2.02
2019-01-08T16:59:17.018Z,2.02
2019-01-08T17:01:45.911Z,2.58
2019-01-08T17:04:14.903Z,1.57
2019-01-08T17:06:43.793Z,1.55
2019-01-08T17:09:12.684Z,1.98
2019-01-08T17:11:41.575Z,1.60
2019-01-08T17:14:10.468Z,1.77
2019-01-08T17:16:39.459Z,1.82
2019-01-08T17:19:08.351Z,1.70
2019-01-08T17:21:37.343Z,1.27
2019-01-08T17:24:06.233Z,1.57
2019-01-08T17:26:35.125Z,1.55
2019-01-08T17:29:04.734Z,1.95
2019-01-08T17:31:33.725Z,2.25
2019-01-08T17:34:02.616Z,1.60
2019-01-08T17:36:31.609Z,1.22
2019-01-08T17:39:00.487Z,1.02
2019-01-08T17:41:29.331Z,2.50
2019-01-08T17:43:58.280Z,1.35
2019-01-08T17:46:27.171Z,1.60
2019-01-08T17:48:56.268Z,2.25
2019-01-08T17:51:25.499Z,1.00
2019-01-08T17:53:54.369Z,1.22
2019-01-08T17:56:23.256Z,1.95
2019-01-08T17:58:54.412Z,1.60
2019-01-08T18:01:23.866Z,1.40
2019-01-08T18:03:52.742Z,1.95
2019-01-08T18:06:21.680Z,2.10
2019-01-08T18:08:50.651Z,1.95
2019-01-08T18:11:19.483Z,1.40
2019-01-08T18:13:48.617Z,1.30
2019-01-08T18:16:17.560Z,0.93
2019-01-08T18:18:46.401Z,1.15
2019-01-08T18:21:15.281Z,1.55
2019-01-08T18:23:44.114Z,1.35
2019-01-08T18:26:13.209Z,1.00
2019-01-08T18:28:42.124Z,2.77
2019-01-08T18:31:11.207Z,0.82
2019-01-08T18:33:40.204Z,1.20
2019-01-08T18:36:09.408Z,0.93
2019-01-08T18:38:38.323Z,1.12
2019-01-08T18:41:07.270Z,0.70
2019-01-08T18:43:36.355Z,2.10
2019-01-08T18:46:05.301Z,1.35
2019-01-08T18:48:34.184Z,1.20
2019-01-08T18:51:03.223Z,2.35
2019-01-08T18:53:32.160Z,1.77
2019-01-08T18:56:00.992Z,1.12
2019-01-08T18:58:29.863Z,0.90
2019-01-08T19:00:58.898Z,1.20
2019-01-08T19:03:27.771Z,2.08
2019-01-08T19:05:56.622Z,0.90
2019-01-08T19:08:28.383Z,1.20
2019-01-08T19:10:57.756Z,1.70
2019-01-08T19:13:26.599Z,1.10
2019-01-08T19:15:55.431Z,1.22
2019-01-08T19:18:24.303Z,1.00
2019-01-08T19:20:53.139Z,1.00
2019-01-08T19:23:22.158Z,0.90
2019-01-08T19:25:51.035Z,1.00
2019-01-08T19:28:19.891Z,0.90
2019-01-08T19:30:48.729Z,1.02
2019-01-08T19:33:17.605Z,1.00
2019-01-08T19:35:46.535Z,1.02
2019-01-08T19:38:15.376Z,1.98
2019-01-08T19:40:44.337Z,1.42
2019-01-08T19:43:13.232Z,1.27
2019-01-08T19:45:42.120Z,1.30
2019-01-08T19:48:11.116Z,1.00
2019-01-08T19:50:40.006Z,1.00
2019-01-08T19:53:08.894Z,1.00
2019-01-08T19:55:37.887Z,1.00
2019-01-08T19:58:06.777Z,1.10
2019-01-08T20:00:35.692Z,1.30
2019-01-08T20:03:04.661Z,1.40
2019-01-08T20:05:33.551Z,1.10
2019-01-08T20:08:02.543Z,1.00
2019-01-08T20:10:31.539Z,1.00
2019-01-08T20:13:00.440Z,3.75
2019-01-08T20:15:29.421Z,8.30
2019-01-08T20:17:58.313Z,2.87
2019-01-08T20:20:27.165Z,0.98
2019-01-08T20:22:56.096Z,0.98
2019-01-08T20:25:24.988Z,1.15
2019-01-08T20:27:53.879Z,1.07
2019-01-08T20:30:22.869Z,1.07
2019-01-08T20:32:51.760Z,1.07
2019-01-08T20:35:20.753Z,1.12
2019-01-08T20:37:49.643Z,0.82
2019-01-08T20:40:18.523Z,1.10
2019-01-08T20:42:48.040Z,1.40
2019-01-08T20:45:16.939Z,1.22
2019-01-08T20:47:45.776Z,1.55
2019-01-08T20:50:14.620Z,1.10
2019-01-08T20:52:43.492Z,1.20
2019-01-08T20:55:12.325Z,1.12
2019-01-08T20:57:41.162Z,0.90
2019-01-08T21:00:10.642Z,0.90
2019-01-08T21:02:39.472Z,1.20
2019-01-08T21:05:08.312Z,1.05
2019-01-08T21:07:37.251Z,1.12
2019-01-08T21:10:07.683Z,1.05
2019-01-08T21:12:36.517Z,1.17
2019-01-08T21:15:05.794Z,1.20
2019-01-08T21:17:34.695Z,1.80
2019-01-08T21:20:03.605Z,0.82
2019-01-08T21:22:32.796Z,0.93
2019-01-08T21:25:01.625Z,0.98
2019-01-08T21:27:30.470Z,0.90
2019-01-08T21:29:59.425Z,0.80
2019-01-08T21:32:28.414Z,0.80
2019-01-08T21:34:57.306Z,1.10
2019-01-08T21:37:26.300Z,1.00
2019-01-08T21:39:55.191Z,1.00
2019-01-08T21:42:24.080Z,1.15
2019-01-08T21:44:53.073Z,1.00
2019-01-08T21:47:21.966Z,1.00
2019-01-08T21:49:50.855Z,1.45
2019-01-08T21:52:19.746Z,1.37
2019-01-08T21:54:48.666Z,1.22
2019-01-08T21:57:17.592Z,0.90
2019-01-08T21:59:47.749Z,0.98
2019-01-08T22:02:16.640Z,0.85
2019-01-08T22:04:53.012Z,0.70
2019-01-08T22:07:16.060Z,1.20
2019-01-08T22:09:44.950Z,1.00
2019-01-08T22:12:13.806Z,1.22
2019-01-08T22:14:42.733Z,1.30
2019-01-08T22:17:13.363Z,1.32
2019-01-08T22:19:42.256Z,0.80
2019-01-08T22:22:11.247Z,0.80
2019-01-08T22:24:40.129Z,0.70
2019-01-08T22:27:09.028Z,1.00
2019-01-08T22:29:38.737Z,0.88
2019-01-08T22:32:07.734Z,1.62
2019-01-08T22:34:36.622Z,1.25
2019-01-08T22:37:05.513Z,1.10
2019-01-08T22:39:34.505Z,0.90
2019-01-08T22:42:03.499Z,2.00
2019-01-08T22:44:32.389Z,0.90
2019-01-08T22:47:01.383Z,1.10
2019-01-08T22:49:30.274Z,1.00
2019-01-08T22:51:59.268Z,0.72
2019-01-08T22:54:28.258Z,0.98
2019-01-08T22:56:57.149Z,0.70
2019-01-08T22:59:26.032Z,0.85
2019-01-08T23:01:55.340Z,0.98
2019-01-08T23:04:25.664Z,0.88
2019-01-08T23:06:54.555Z,0.75
2019-01-08T23:09:24.061Z,0.88
2019-01-08T23:11:53.565Z,0.80
2019-01-08T23:14:22.557Z,0.85
2019-01-08T23:16:51.560Z,0.80
2019-01-08T23:19:20.441Z,1.00
2019-01-08T23:21:49.263Z,0.80
2019-01-08T23:24:18.222Z,0.90
2019-01-08T23:26:47.113Z,1.25
2019-01-08T23:29:16.003Z,1.02
2019-01-08T23:31:45.000Z,1.65
2019-01-08T23:34:13.888Z,1.20
2019-01-08T23:36:42.756Z,1.10
2019-01-08T23:39:11.668Z,1.17
2019-01-08T23:41:40.560Z,1.37
2019-01-08T23:44:09.552Z,2.02
2019-01-08T23:46:38.443Z,1.10
2019-01-08T23:49:07.436Z,1.40
2019-01-08T23:51:37.048Z,1.60
2019-01-08T23:54:05.934Z,1.40
2019-01-08T23:56:34.825Z,1.60
2019-01-08T23:59:03.717Z,1.10
